CheckWX is a tool to help pilots better visualize weather data.  It is not intended as a substitute for an official pre-flight weather briefing.

08:10:40 UTC

PTRO TAF
Babelthuap / Koror Airport
Babelthuap Island, Palau
PTRO 210531Z 2106/2206 04012G20KT P6SM VCSH SCT018 BKN050 TEMPO 2106/2110 5SM SHRA BKN016 OVC040 FM211000 04011KT P6SM VCSH SCT018 SCT050

Jan-21@
06:00 UTC

Jan-21 @ 06:00 UTC

Jan-21@
10:00 UTC

Jan-21 @ 10:00 UTC

PTRO 210531Z 2106/2206 04012G20KT P6SM VCSH SCT018 BKN050
Wind
  • 040° at 12 KTS
  • {Gusting to 20 KTS
Cloud Levels
  • Scattered at 1,800' AGL
  • Broken at 5,000' AGL

Jan-21@
06:00 UTC

Jan-21 @ 06:00 UTC

Jan-21@
10:00 UTC

Jan-21 @ 10:00 UTC

TEMPO 2106/2110 5SM SHRA BKN016 OVC040

Temporary

Temporary Changes expected for less than half the time period

Conditions
Rain
Cloud Levels
  • Broken at 1,600' AGL
  • Overcast at 4,000' AGL

Jan-21@
10:00 UTC

Jan-21 @ 10:00 UTC

Jan-22@
06:00 UTC

Jan-22 @ 06:00 UTC

FM211000 04011KT P6SM VCSH SCT018 SCT050

From

From Standard forecast or significant change

Wind
  • 040° at 11 KTS
Cloud Levels
  • Scattered at 1,800' AGL
  • Scattered at 5,000' AGL